createdAt,value
2022-08-07T00:00:33.395Z,8.17
2022-08-07T00:03:01.082Z,8.20
2022-08-07T00:05:30.383Z,7.77
2022-08-07T00:07:59.639Z,8.47
2022-08-07T00:10:30.406Z,7.70
2022-08-07T00:13:03.238Z,8.80
2022-08-07T00:15:51.079Z,7.93
2022-08-07T00:18:24.486Z,8.30
2022-08-07T00:20:54.483Z,8.60
2022-08-07T00:23:21.937Z,7.80
2022-08-07T00:25:58.851Z,7.23
2022-08-07T00:28:31.663Z,8.07
2022-08-07T00:31:12.399Z,7.50
2022-08-07T00:33:47.679Z,8.33
2022-08-07T00:36:16.774Z,7.90
2022-08-07T00:38:44.509Z,7.83
2022-08-07T00:41:14.886Z,9.70
2022-08-07T00:44:00.252Z,8.33
2022-08-07T00:46:33.956Z,9.67
2022-08-07T00:49:03.246Z,8.10
2022-08-07T00:51:58.448Z,9.10
2022-08-07T00:54:19.753Z,7.97
2022-08-07T00:56:49.836Z,7.50
2022-08-07T00:59:17.750Z,7.60
2022-08-07T01:01:50.735Z,7.80
2022-08-07T01:04:25.570Z,7.97
2022-08-07T01:06:58.037Z,8.93
2022-08-07T01:09:51.152Z,9.00
2022-08-07T01:12:30.208Z,8.20
2022-08-07T01:15:01.093Z,10.43
2022-08-07T01:17:34.468Z,8.77
2022-08-07T01:20:10.163Z,8.23
2022-08-07T01:23:07.412Z,9.00
2022-08-07T01:25:53.554Z,7.87
2022-08-07T01:28:23.763Z,8.20
2022-08-07T01:30:54.069Z,8.10
2022-08-07T01:33:22.491Z,9.10
2022-08-07T01:35:53.667Z,8.83
2022-08-07T01:38:25.727Z,8.23
2022-08-07T01:40:57.915Z,10.03
2022-08-07T01:43:26.148Z,8.93
2022-08-07T01:46:04.458Z,8.10
2022-08-07T01:48:32.746Z,9.23
2022-08-07T01:51:24.322Z,12.60
2022-08-07T01:54:12.266Z,11.93
2022-08-07T01:56:52.018Z,13.63
2022-08-07T01:59:30.695Z,9.00
2022-08-07T02:02:06.301Z,9.27
2022-08-07T02:04:56.273Z,10.27
2022-08-07T02:07:36.166Z,9.63
2022-08-07T02:10:25.215Z,11.30
2022-08-07T02:12:56.829Z,9.23
2022-08-07T02:15:29.309Z,10.07
2022-08-07T02:18:00.929Z,10.50
2022-08-07T02:20:31.911Z,8.67
2022-08-07T02:23:04.961Z,8.70
2022-08-07T02:26:31.143Z,8.77
2022-08-07T02:28:31.305Z,8.13
2022-08-07T02:31:16.535Z,9.03
2022-08-07T02:34:03.169Z,10.83
2022-08-07T02:36:33.958Z,9.93
2022-08-07T02:39:16.253Z,8.27
2022-08-07T02:41:54.646Z,9.57
2022-08-07T02:44:27.550Z,8.47
2022-08-07T02:47:05.678Z,8.57
2022-08-07T02:49:58.202Z,8.97
2022-08-07T02:52:32.617Z,9.23
2022-08-07T02:55:27.434Z,8.97
2022-08-07T02:58:03.032Z,8.53
2022-08-07T03:00:36.053Z,8.63
2022-08-07T03:03:13.549Z,8.90
2022-08-07T03:05:53.650Z,9.10
2022-08-07T03:08:26.869Z,8.93
2022-08-07T03:10:58.353Z,11.57
2022-08-07T03:13:27.186Z,8.50
2022-08-07T03:15:58.646Z,8.30
2022-08-07T03:18:36.064Z,8.17
2022-08-07T03:21:08.630Z,8.03
2022-08-07T03:24:18.289Z,8.13
2022-08-07T03:26:33.177Z,8.30
2022-08-07T03:29:06.349Z,8.17
2022-08-07T03:31:42.413Z,8.40
2022-08-07T03:34:18.592Z,11.00
2022-08-07T03:36:53.262Z,9.33
2022-08-07T03:39:46.190Z,9.10
2022-08-07T03:42:14.329Z,8.80
2022-08-07T03:44:47.198Z,9.10
2022-08-07T03:47:25.720Z,9.30
2022-08-07T03:49:57.285Z,8.60
2022-08-07T03:52:28.454Z,7.87
2022-08-07T03:54:59.016Z,8.30
2022-08-07T03:58:32.543Z,8.80
2022-08-07T04:00:29.256Z,14.20
2022-08-07T04:02:59.150Z,11.43
2022-08-07T04:05:39.758Z,8.47
2022-08-07T04:08:11.857Z,8.80
2022-08-07T04:10:42.463Z,8.43
2022-08-07T04:13:15.473Z,9.17
2022-08-07T04:15:45.750Z,9.00
2022-08-07T04:18:58.219Z,8.60
2022-08-07T04:21:07.329Z,9.70
2022-08-07T04:23:43.723Z,10.17
2022-08-07T04:26:23.248Z,9.77
2022-08-07T04:28:55.990Z,9.30
2022-08-07T04:32:02.142Z,9.17
2022-08-07T04:34:16.634Z,10.23
2022-08-07T04:36:45.326Z,11.20
2022-08-07T04:39:17.827Z,9.00
2022-08-07T04:41:50.328Z,11.73
2022-08-07T04:44:19.190Z,12.23
2022-08-07T04:47:07.879Z,9.57
2022-08-07T04:50:04.210Z,9.03
2022-08-07T04:52:51.002Z,10.83
2022-08-07T04:58:13.070Z,11.43
2022-08-07T04:58:48.843Z,9.33
2022-08-07T05:01:21.467Z,10.50
2022-08-07T05:04:17.217Z,8.90
2022-08-07T05:07:09.596Z,9.70
2022-08-07T05:09:59.722Z,8.13
2022-08-07T05:12:38.042Z,10.17
2022-08-07T05:15:23.694Z,13.30
2022-08-07T05:18:00.916Z,9.67
2022-08-07T05:20:39.919Z,9.80
2022-08-07T05:23:16.487Z,10.10
2022-08-07T05:26:10.824Z,8.60
2022-08-07T05:28:40.516Z,9.37
2022-08-07T05:31:12.651Z,8.27
2022-08-07T05:34:01.042Z,9.80
2022-08-07T05:36:35.415Z,9.63
2022-08-07T05:40:05.773Z,9.53
2022-08-07T05:42:02.496Z,9.27
2022-08-07T05:44:35.457Z,9.90
2022-08-07T05:47:38.568Z,9.40
2022-08-07T05:49:53.388Z,9.33
2022-08-07T05:52:32.304Z,8.63
2022-08-07T05:55:07.261Z,9.20
2022-08-07T05:57:41.961Z,7.67
2022-08-07T06:00:15.930Z,8.00
2022-08-07T06:02:49.227Z,6.43
2022-08-07T06:05:19.658Z,7.00
2022-08-07T06:08:14.818Z,7.40
2022-08-07T06:10:43.551Z,8.40
2022-08-07T06:13:13.661Z,8.77
2022-08-07T06:15:44.355Z,8.50
2022-08-07T06:18:13.760Z,8.30
2022-08-07T06:20:50.482Z,6.60
2022-08-07T06:24:38.124Z,8.20
2022-08-07T06:26:21.720Z,7.77
2022-08-07T06:28:59.569Z,6.97
2022-08-07T06:31:47.306Z,6.83
2022-08-07T06:34:16.424Z,8.07
2022-08-07T06:36:48.311Z,7.87
2022-08-07T06:40:16.703Z,9.03
2022-08-07T06:42:17.773Z,9.73
2022-08-07T06:44:51.122Z,9.73
2022-08-07T06:47:19.533Z,7.00
2022-08-07T06:49:50.838Z,7.30
2022-08-07T06:52:31.839Z,7.47
2022-08-07T06:55:34.158Z,8.63
2022-08-07T06:58:02.458Z,8.47
2022-08-07T07:00:38.179Z,8.20
2022-08-07T07:03:08.678Z,9.37
2022-08-07T07:06:03.808Z,7.03
2022-08-07T07:08:29.125Z,6.53
2022-08-07T07:10:59.037Z,7.47
2022-08-07T07:13:56.032Z,7.73
2022-08-07T07:16:30.772Z,7.70
2022-08-07T07:19:54.645Z,8.77
2022-08-07T07:22:05.347Z,6.23
2022-08-07T07:24:42.803Z,7.03
2022-08-07T07:27:15.743Z,6.20
2022-08-07T07:30:07.515Z,9.17
2022-08-07T07:32:40.573Z,6.40
2022-08-07T07:35:13.167Z,5.27
2022-08-07T07:37:59.081Z,5.60
2022-08-07T07:40:32.213Z,6.40
2022-08-07T07:43:15.049Z,6.77
2022-08-07T07:46:36.560Z,5.60
2022-08-07T07:48:39.808Z,5.67
2022-08-07T07:51:08.596Z,5.27
2022-08-07T07:53:51.481Z,5.93
2022-08-07T07:56:29.978Z,5.73
2022-08-07T07:59:02.455Z,7.30
2022-08-07T08:02:03.857Z,6.13
2022-08-07T08:04:25.885Z,5.43
2022-08-07T08:06:56.288Z,4.60
2022-08-07T08:09:29.514Z,4.60
2022-08-07T08:12:04.925Z,4.70
2022-08-07T08:14:36.809Z,5.13
2022-08-07T08:17:56.499Z,4.20
2022-08-07T08:20:18.887Z,3.97
2022-08-07T08:23:14.448Z,4.20
2022-08-07T08:26:07.112Z,4.47
2022-08-07T08:28:44.871Z,3.57
2022-08-07T08:31:30.138Z,4.10
2022-08-07T08:34:26.647Z,4.47
2022-08-07T08:36:58.458Z,5.57
2022-08-07T08:39:39.658Z,4.15
2022-08-07T08:42:26.097Z,6.50
2022-08-07T08:45:13.421Z,5.53
2022-08-07T08:47:56.090Z,5.15
2022-08-07T08:50:39.343Z,4.80
2022-08-07T08:53:22.543Z,4.97
2022-08-07T08:55:58.971Z,4.97
2022-08-07T08:58:41.738Z,4.90
2022-08-07T09:01:18.484Z,4.80
2022-08-07T09:03:59.689Z,4.22
2022-08-07T09:06:48.417Z,4.88
2022-08-07T09:09:56.567Z,3.75
2022-08-07T09:12:53.034Z,4.57
2022-08-07T09:16:24.318Z,4.43
2022-08-07T09:19:51.919Z,5.55
2022-08-07T09:24:29.105Z,4.78
2022-08-07T09:25:17.573Z,5.28
2022-08-07T09:28:01.064Z,6.35
2022-08-07T09:30:52.877Z,4.43
2022-08-07T09:33:56.817Z,5.28
2022-08-07T09:36:37.402Z,5.05
2022-08-07T09:39:53.833Z,5.32
2022-08-07T09:42:37.973Z,5.00
2022-08-07T09:47:25.073Z,4.45
2022-08-07T09:48:20.588Z,4.68
2022-08-07T09:51:25.988Z,4.82
2022-08-07T09:54:03.704Z,4.50
2022-08-07T09:57:12.898Z,5.28
2022-08-07T10:00:09.127Z,4.20
2022-08-07T10:04:06.800Z,4.90
2022-08-07T10:06:55.643Z,4.80
2022-08-07T10:10:01.147Z,4.78
2022-08-07T10:12:57.066Z,4.70
2022-08-07T10:15:52.036Z,4.10
2022-08-07T10:18:44.011Z,4.28
2022-08-07T10:22:12.495Z,4.63
2022-08-07T10:25:04.531Z,4.20
2022-08-07T10:27:53.562Z,4.13
2022-08-07T10:30:36.360Z,4.15
2022-08-07T10:34:05.128Z,4.30
2022-08-07T10:36:41.488Z,4.32
2022-08-07T10:39:41.740Z,4.07
2022-08-07T10:42:38.566Z,4.43
2022-08-07T10:45:43.979Z,4.35
2022-08-07T10:48:34.674Z,3.65
2022-08-07T10:51:16.616Z,4.55
2022-08-07T10:54:11.179Z,4.60
2022-08-07T10:56:57.134Z,4.85
2022-08-07T10:59:50.939Z,5.60
2022-08-07T11:02:34.270Z,3.88
2022-08-07T11:05:35.611Z,3.70
2022-08-07T11:08:30.473Z,3.37
2022-08-07T11:11:06.153Z,3.73
2022-08-07T11:14:45.853Z,4.00
2022-08-07T11:16:41.017Z,3.60
2022-08-07T11:19:27.075Z,3.53
2022-08-07T11:22:18.771Z,3.40
2022-08-07T11:25:07.359Z,3.97
2022-08-07T11:28:01.205Z,3.27
2022-08-07T11:30:45.534Z,2.80
2022-08-07T11:33:59.416Z,4.00
2022-08-07T11:36:38.028Z,3.40
2022-08-07T11:39:20.027Z,2.90
2022-08-07T11:42:03.298Z,3.77
2022-08-07T11:44:52.609Z,3.80
2022-08-07T11:48:30.415Z,3.00
2022-08-07T11:51:22.441Z,3.50
2022-08-07T11:54:34.813Z,3.43
2022-08-07T11:57:19.191Z,3.80
2022-08-07T12:00:10.660Z,3.87
2022-08-07T12:03:42.229Z,3.67
2022-08-07T12:06:40.364Z,5.37
2022-08-07T12:09:34.199Z,6.63
2022-08-07T12:12:09.534Z,4.13
2022-08-07T12:14:52.700Z,3.83
2022-08-07T12:17:35.941Z,3.73
2022-08-07T12:20:20.829Z,3.93
2022-08-07T12:24:07.434Z,4.03
2022-08-07T12:26:47.371Z,3.33
2022-08-07T12:29:37.764Z,3.90
2022-08-07T12:32:18.233Z,5.30
2022-08-07T12:35:03.003Z,3.20
2022-08-07T12:38:10.034Z,4.07
2022-08-07T12:40:49.988Z,3.40
2022-08-07T12:44:02.762Z,3.80
2022-08-07T12:46:32.464Z,3.60
2022-08-07T12:49:25.349Z,3.17
2022-08-07T12:52:14.484Z,3.80
2022-08-07T12:55:02.832Z,3.67
2022-08-07T12:57:39.322Z,3.73
2022-08-07T13:00:49.469Z,3.17
2022-08-07T13:04:02.976Z,3.20
2022-08-07T13:07:09.013Z,3.47
2022-08-07T13:10:45.686Z,3.63
2022-08-07T13:13:51.666Z,3.60
2022-08-07T13:16:32.615Z,3.57
2022-08-07T13:19:35.217Z,4.07
2022-08-07T13:22:19.946Z,4.03
2022-08-07T13:25:02.467Z,3.80
2022-08-07T13:28:13.809Z,4.77
2022-08-07T13:30:41.372Z,3.83
2022-08-07T13:34:29.974Z,3.60
2022-08-07T13:36:19.737Z,4.37
2022-08-07T13:39:01.004Z,4.00
2022-08-07T13:41:41.338Z,3.70
2022-08-07T13:44:12.914Z,4.60
2022-08-07T13:46:49.184Z,3.37
2022-08-07T13:50:32.656Z,3.70
2022-08-07T13:52:25.900Z,2.80
2022-08-07T13:54:58.661Z,3.63
2022-08-07T13:57:37.671Z,3.53
2022-08-07T14:00:26.101Z,3.63
2022-08-07T14:02:59.546Z,3.30
2022-08-07T14:05:37.995Z,3.20
2022-08-07T14:08:09.272Z,4.03
2022-08-07T14:10:41.801Z,4.00
2022-08-07T14:13:16.546Z,3.40
2022-08-07T14:15:56.941Z,3.67
2022-08-07T14:18:33.807Z,3.50
2022-08-07T14:21:21.207Z,3.53
2022-08-07T14:24:05.018Z,3.60
2022-08-07T14:30:09.807Z,3.00
2022-08-07T14:32:28.106Z,3.20
2022-08-07T14:35:01.477Z,2.70
2022-08-07T14:37:36.392Z,4.00
2022-08-07T14:40:26.531Z,4.10
2022-08-07T14:43:55.396Z,2.90
2022-08-07T14:45:54.767Z,3.87
2022-08-07T14:48:27.619Z,3.20
2022-08-07T14:51:00.342Z,3.97
2022-08-07T14:54:08.573Z,4.07
2022-08-07T14:56:29.619Z,4.23
2022-08-07T14:59:04.543Z,3.80
2022-08-07T15:04:40.336Z,4.93
2022-08-07T15:07:24.594Z,4.57
2022-08-07T15:13:16.846Z,3.97
2022-08-07T15:15:52.714Z,3.53
2022-08-07T15:18:34.771Z,4.30
2022-08-07T15:25:15.718Z,3.50
2022-08-07T15:27:07.104Z,2.97
2022-08-07T15:30:09.030Z,3.30
2022-08-07T15:35:19.808Z,3.53
2022-08-07T15:38:29.905Z,2.97
2022-08-07T15:41:23.605Z,4.13
2022-08-07T15:44:04.217Z,2.80
2022-08-07T15:46:52.071Z,3.77
2022-08-07T15:50:03.865Z,3.63
2022-08-07T15:52:23.592Z,3.63
2022-08-07T15:55:03.342Z,3.00
2022-08-07T15:57:47.549Z,3.73
2022-08-07T16:00:32.213Z,3.60
2022-08-07T16:03:22.042Z,3.97
2022-08-07T16:06:05.116Z,3.30
2022-08-07T16:08:41.619Z,4.90
2022-08-07T16:11:27.360Z,3.90
2022-08-07T16:14:12.946Z,3.37
2022-08-07T16:17:01.880Z,4.97
2022-08-07T16:19:59.238Z,3.97
2022-08-07T16:22:54.241Z,4.73
2022-08-07T16:25:54.491Z,2.93
2022-08-07T16:29:18.514Z,3.60
2022-08-07T16:31:51.476Z,4.20
2022-08-07T16:34:42.111Z,3.10
2022-08-07T16:38:09.406Z,6.83
2022-08-07T16:41:25.092Z,3.50
2022-08-07T16:44:57.262Z,3.13
2022-08-07T16:48:04.359Z,3.77
2022-08-07T16:51:20.868Z,5.03
2022-08-07T16:54:01.693Z,3.63
2022-08-07T16:56:50.197Z,4.00
2022-08-07T16:59:46.103Z,5.10
2022-08-07T17:03:04.816Z,3.20
2022-08-07T17:06:19.670Z,2.77
2022-08-07T17:09:10.718Z,3.20
2022-08-07T17:12:05.053Z,3.60
2022-08-07T17:15:03.030Z,3.00
2022-08-07T17:17:52.597Z,3.13
2022-08-07T17:20:32.783Z,3.53
2022-08-07T17:23:17.061Z,3.83
2022-08-07T17:26:02.226Z,3.63
2022-08-07T17:28:41.479Z,3.67
2022-08-07T17:31:24.970Z,2.77
2022-08-07T17:34:33.708Z,5.17
2022-08-07T17:38:06.594Z,3.57
2022-08-07T17:40:10.633Z,3.33
2022-08-07T17:42:59.796Z,5.37
2022-08-07T17:45:35.576Z,3.77
2022-08-07T17:48:12.657Z,3.47
2022-08-07T17:50:57.459Z,8.43
2022-08-07T17:54:01.080Z,5.80
2022-08-07T17:56:30.935Z,3.60
2022-08-07T17:59:09.272Z,3.40
2022-08-07T18:01:50.447Z,3.17
2022-08-07T18:04:40.195Z,4.47
2022-08-07T18:07:34.151Z,2.67
2022-08-07T18:10:29.092Z,2.93
2022-08-07T18:13:17.685Z,2.60
2022-08-07T18:16:12.245Z,2.80
2022-08-07T18:21:04.223Z,2.83
2022-08-07T18:22:00.015Z,4.03
2022-08-07T18:24:42.127Z,3.97
2022-08-07T18:27:24.066Z,3.13
2022-08-07T18:30:32.297Z,3.23
2022-08-07T18:33:55.683Z,2.03
2022-08-07T18:36:44.156Z,3.07
2022-08-07T18:40:08.405Z,5.17
2022-08-07T18:42:57.676Z,5.00
2022-08-07T18:46:22.074Z,3.87
2022-08-07T18:50:06.767Z,2.93
2022-08-07T18:52:34.000Z,3.33
2022-08-07T18:54:51.147Z,3.20
2022-08-07T18:57:43.990Z,4.70
2022-08-07T19:00:50.020Z,5.43
2022-08-07T19:03:37.821Z,3.00
2022-08-07T19:06:16.290Z,2.37
2022-08-07T19:09:09.261Z,4.53
2022-08-07T19:12:20.734Z,2.97
2022-08-07T19:16:02.327Z,4.07
2022-08-07T19:18:19.523Z,2.93
2022-08-07T19:21:47.659Z,3.57
2022-08-07T19:24:30.430Z,2.60
2022-08-07T19:28:30.084Z,2.93
2022-08-07T19:31:00.624Z,2.70
2022-08-07T19:32:59.279Z,3.80
2022-08-07T19:35:33.422Z,2.90
2022-08-07T19:38:15.921Z,9.17
2022-08-07T19:40:51.436Z,4.47
2022-08-07T19:43:49.162Z,3.83
2022-08-07T19:46:17.899Z,2.50
2022-08-07T19:48:55.995Z,3.23
2022-08-07T19:51:53.189Z,5.53
2022-08-07T19:54:33.986Z,4.27
2022-08-07T19:58:01.869Z,5.83
2022-08-07T19:59:59.717Z,4.67
2022-08-07T20:02:36.122Z,9.03
2022-08-07T20:05:12.508Z,7.73
2022-08-07T20:07:46.495Z,4.37
2022-08-07T20:10:35.919Z,3.23
2022-08-07T20:13:22.659Z,3.47
2022-08-07T20:15:57.507Z,2.80
2022-08-07T20:18:33.040Z,6.00
2022-08-07T20:21:21.251Z,4.13
2022-08-07T20:23:57.951Z,3.70
2022-08-07T20:26:38.878Z,3.33
2022-08-07T20:29:48.997Z,3.20
2022-08-07T20:32:11.522Z,3.10
2022-08-07T20:34:57.628Z,3.00
2022-08-07T20:37:33.604Z,5.93
2022-08-07T20:40:31.555Z,2.97
2022-08-07T20:42:57.253Z,3.77
2022-08-07T20:46:24.113Z,3.20
2022-08-07T20:48:29.746Z,3.47
2022-08-07T20:51:02.167Z,3.93
2022-08-07T20:54:02.304Z,4.17
2022-08-07T20:56:26.131Z,4.00
2022-08-07T20:58:58.848Z,3.77
2022-08-07T21:01:36.338Z,5.13
2022-08-07T21:04:22.364Z,4.43
2022-08-07T21:06:58.263Z,3.83
2022-08-07T21:09:52.545Z,3.10
2022-08-07T21:12:31.133Z,4.23
2022-08-07T21:15:05.455Z,3.63
2022-08-07T21:18:03.404Z,3.23
2022-08-07T21:20:29.550Z,3.70
2022-08-07T21:23:08.019Z,3.50
2022-08-07T21:26:01.469Z,4.20
2022-08-07T21:28:48.234Z,4.00
2022-08-07T21:31:49.555Z,4.40
2022-08-07T21:34:32.269Z,4.60
2022-08-07T21:37:13.149Z,4.23
2022-08-07T21:39:56.505Z,4.40
2022-08-07T21:42:48.010Z,4.67
2022-08-07T21:46:10.686Z,3.67
2022-08-07T21:48:33.265Z,4.13
2022-08-07T21:51:20.433Z,4.23
2022-08-07T21:54:01.081Z,3.97
2022-08-07T21:56:48.271Z,3.47
2022-08-07T21:59:36.327Z,4.20
2022-08-07T22:02:31.063Z,3.13
2022-08-07T22:05:03.451Z,4.60
2022-08-07T22:07:58.199Z,4.50
2022-08-07T22:10:33.660Z,2.93
2022-08-07T22:13:09.438Z,4.00
2022-08-07T22:16:42.549Z,4.00
2022-08-07T22:18:41.832Z,4.90
2022-08-07T22:21:19.078Z,3.70
2022-08-07T22:23:57.254Z,3.97
2022-08-07T22:26:42.519Z,4.50
2022-08-07T22:29:33.789Z,6.30
2022-08-07T22:32:20.187Z,3.97
2022-08-07T22:34:54.349Z,4.27
2022-08-07T22:38:04.251Z,4.70
2022-08-07T22:40:40.072Z,3.87
2022-08-07T22:43:11.928Z,4.63
2022-08-07T22:46:40.482Z,5.57
2022-08-07T22:49:28.147Z,5.27
2022-08-07T22:52:51.869Z,4.30
2022-08-07T22:55:38.571Z,5.23
2022-08-07T22:58:43.313Z,5.17
2022-08-07T23:01:42.141Z,4.37
2022-08-07T23:06:07.396Z,6.50
2022-08-07T23:08:24.454Z,4.90
2022-08-07T23:11:15.120Z,4.07
2022-08-07T23:14:15.440Z,4.00
2022-08-07T23:17:12.698Z,5.60
2022-08-07T23:20:21.754Z,4.23
2022-08-07T23:24:06.745Z,5.47
2022-08-07T23:26:57.785Z,4.33
2022-08-07T23:30:37.178Z,4.67
2022-08-07T23:34:33.890Z,5.30
2022-08-07T23:36:22.961Z,4.40
2022-08-07T23:39:09.524Z,4.37
2022-08-07T23:42:21.872Z,4.43
2022-08-07T23:45:33.225Z,7.40
2022-08-07T23:48:40.848Z,5.73
2022-08-07T23:53:00.257Z,5.10
2022-08-07T23:54:19.683Z,4.73
2022-08-07T23:57:18.439Z,6.30
